Time;durP1;ratioP1;P1;durP2;ratioP2;P2;SDS_P1;SDS_P2;PMS_P1;PMS_P2;Temp;Humidity;BMP_temperature;BMP_pressure;BME280_temperature;BME280_humidity;BME280_pressure;Samples;Min_cycle;Max_cycle;Signal;HPM_P1;HPM_P2
2022/09/26 00:01:41;;;;;;;1.98;0.93;;;17.50;96.70;;;;;;5085335;28;20052;-82
2022/09/26 00:04:15;;;;;;;1.50;1.10;;;17.50;96.70;;;;;;5069881;28;20056;-82
2022/09/26 00:06:43;;;;;;;1.20;1.10;;;17.40;96.70;;;;;;5084881;28;20044;-82
2022/09/26 00:09:12;;;;;;;1.20;0.90;;;17.40;96.70;;;;;;5084284;28;20041;-82
2022/09/26 00:11:43;;;;;;;0.88;0.88;;;17.50;96.70;;;;;;5086610;28;20123;-82
2022/09/26 00:14:14;;;;;;;1.00;0.90;;;17.40;96.70;;;;;;5080470;28;20079;-82
2022/09/26 00:16:42;;;;;;;0.95;0.85;;;17.50;96.70;;;;;;5084454;28;20047;-80
2022/09/26 00:19:11;;;;;;;0.77;0.70;;;17.50;96.70;;;;;;5083408;28;20040;-80
2022/09/26 00:21:39;;;;;;;0.80;0.80;;;17.40;96.70;;;;;;5085054;28;20131;-80
2022/09/26 00:24:08;;;;;;;1.00;0.90;;;17.50;96.70;;;;;;5079104;28;20071;-81
2022/09/26 00:26:37;;;;;;;2.05;1.10;;;17.50;96.70;;;;;;5067177;28;20048;-81
2022/09/26 00:29:09;;;;;;;1.20;0.68;;;17.40;96.70;;;;;;5083966;28;20050;-80
2022/09/26 00:31:39;;;;;;;0.98;0.88;;;17.40;96.70;;;;;;5081972;28;20123;-81
2022/09/26 00:34:09;;;;;;;0.90;0.80;;;17.40;96.70;;;;;;5095821;28;20047;-81
2022/09/26 00:36:37;;;;;;;1.25;1.10;;;17.40;96.70;;;;;;5083344;28;20135;-80
2022/09/26 00:39:07;;;;;;;3.50;1.40;;;17.50;96.70;;;;;;5084210;28;20050;-80
2022/09/26 00:41:36;;;;;;;1.85;1.20;;;17.50;96.70;;;;;;5066034;28;20049;-80
2022/09/26 00:44:36;;;;;;;2.17;1.10;;;17.50;96.70;;;;;;5082931;28;20074;-80
2022/09/26 00:47:12;;;;;;;3.42;1.10;;;17.50;96.70;;;;;;5082312;28;20456;-80
2022/09/26 00:49:43;;;;;;;2.58;1.50;;;17.40;96.70;;;;;;5084247;28;20048;-80
2022/09/26 00:52:15;;;;;;;1.90;1.30;;;17.50;96.70;;;;;;5082010;28;20101;-78
2022/09/26 00:54:46;;;;;;;2.33;1.42;;;17.40;96.70;;;;;;5083560;28;20047;-79
2022/09/26 00:57:19;;;;;;;4.82;2.10;;;17.40;96.70;;;;;;5083367;28;20040;-79
2022/09/26 00:59:53;;;;;;;3.95;2.17;;;17.40;96.70;;;;;;5083846;28;20044;-80
2022/09/26 01:02:24;;;;;;;4.20;1.95;;;17.40;96.70;;;;;;5082706;28;20036;-80
2022/09/26 01:04:54;;;;;;;2.97;2.20;;;17.40;96.70;;;;;;5083698;28;20052;-80
2022/09/26 01:07:25;;;;;;;2.78;1.75;;;17.40;96.70;;;;;;5084578;28;20574;-81
2022/09/26 01:09:55;;;;;;;3.60;1.85;;;17.40;96.70;;;;;;5063883;28;20101;-81
2022/09/26 01:12:23;;;;;;;3.50;1.50;;;17.40;96.70;;;;;;5080402;28;20052;-82
2022/09/26 01:14:55;;;;;;;2.90;1.40;;;17.40;96.70;;;;;;5108500;28;20056;-82
2022/09/26 01:17:25;;;;;;;1.30;1.15;;;17.40;96.70;;;;;;5083607;28;20048;-82
2022/09/26 01:20:25;;;;;;;2.45;1.10;;;17.30;96.70;;;;;;5085414;28;20043;-82
2022/09/26 01:23:42;;;;;;;1.63;1.20;;;17.30;96.70;;;;;;5101111;28;20079;-82
2022/09/26 01:26:46;;;;;;;1.35;1.25;;;17.30;96.70;;;;;;5085049;28;20057;-82
2022/09/26 01:29:38;;;;;;;3.30;1.40;;;17.30;96.70;;;;;;5082002;28;20048;-82
2022/09/26 01:35:14;;;;;;;3.30;1.67;;;17.20;96.70;;;;;;5088701;28;20048;-82
2022/09/26 01:37:51;;;;;;;2.63;1.60;;;17.20;96.70;;;;;;5095856;28;20099;-82
2022/09/26 01:40:27;;;;;;;2.33;1.30;;;17.30;96.70;;;;;;5065515;28;20514;-82
2022/09/26 01:43:07;;;;;;;2.00;1.70;;;17.20;96.70;;;;;;5089533;28;20067;-82
2022/09/26 01:45:45;;;;;;;3.40;1.90;;;17.10;96.70;;;;;;5067234;28;20055;-82
2022/09/26 01:48:22;;;;;;;3.38;2.10;;;17.10;96.70;;;;;;5083641;28;20055;-82
2022/09/26 01:50:55;;;;;;;1.77;1.67;;;17.10;96.70;;;;;;5087423;28;20048;-82
2022/09/26 01:53:28;;;;;;;3.50;2.30;;;17.10;96.70;;;;;;5089543;28;20040;-82
2022/09/26 01:56:03;;;;;;;3.30;2.60;;;17.10;96.70;;;;;;5086113;28;20389;-82
2022/09/26 01:58:36;;;;;;;5.50;2.60;;;17.20;96.70;;;;;;5083631;28;20064;-82
2022/09/26 02:01:09;;;;;;;5.63;2.50;;;17.10;96.70;;;;;;5088183;28;20055;-82
2022/09/26 02:03:44;;;;;;;3.10;2.53;;;17.10;96.70;;;;;;5087931;28;20055;-82
2022/09/26 02:06:16;;;;;;;2.20;2.00;;;17.10;96.70;;;;;;5085421;28;20498;-82
2022/09/26 02:08:48;;;;;;;2.30;1.75;;;17.10;96.70;;;;;;5088075;28;20062;-82
2022/09/26 02:11:18;;;;;;;2.47;2.10;;;17.10;96.70;;;;;;5105639;28;20040;-82
2022/09/26 02:13:56;;;;;;;3.10;1.80;;;17.00;96.70;;;;;;5070282;28;20047;-82
2022/09/26 02:16:28;;;;;;;1.98;1.85;;;17.00;96.70;;;;;;5084508;28;20657;-82
2022/09/26 02:19:04;;;;;;;2.45;1.88;;;17.00;96.70;;;;;;5071745;28;20051;-82
2022/09/26 02:21:33;;;;;;;2.63;2.05;;;17.00;96.70;;;;;;5098344;28;20080;-82
2022/09/26 02:24:06;;;;;;;3.22;2.40;;;17.00;96.70;;;;;;5093770;28;20044;-82
2022/09/26 02:26:35;;;;;;;2.53;2.33;;;17.00;96.70;;;;;;5088043;28;20036;-81
2022/09/26 02:29:03;;;;;;;2.28;2.08;;;17.10;96.70;;;;;;5084110;28;20040;-82
2022/09/26 02:31:35;;;;;;;3.00;2.10;;;17.00;96.70;;;;;;5088303;28;20081;-82
2022/09/26 02:34:05;;;;;;;2.13;1.73;;;17.10;96.70;;;;;;5088091;28;20055;-82
2022/09/26 02:36:33;;;;;;;2.13;1.92;;;17.10;96.70;;;;;;5087600;28;20086;-81
2022/09/26 02:39:02;;;;;;;2.42;1.63;;;17.10;96.70;;;;;;5086733;28;20040;-81
2022/09/26 02:41:59;;;;;;;3.17;1.98;;;17.00;96.70;;;;;;5088611;28;20052;-82
2022/09/26 02:44:38;;;;;;;3.53;2.20;;;17.00;96.70;;;;;;5070752;28;20068;-82
2022/09/26 02:47:34;;;;;;;3.13;1.80;;;17.00;96.70;;;;;;5085670;28;20068;-82
2022/09/26 02:50:39;;;;;;;2.55;1.77;;;17.00;96.70;;;;;;5087168;28;20090;-80
2022/09/26 02:53:20;;;;;;;2.25;1.65;;;17.00;96.70;;;;;;5087320;28;20048;-80
2022/09/26 02:56:02;;;;;;;3.65;2.00;;;16.90;96.70;;;;;;5086050;28;20451;-80
2022/09/26 02:58:38;;;;;;;2.95;1.95;;;16.90;96.70;;;;;;5068139;28;20690;-79
2022/09/26 03:01:16;;;;;;;3.03;1.98;;;16.90;96.70;;;;;;5070634;28;20044;-80
2022/09/26 03:03:52;;;;;;;3.22;1.90;;;17.00;96.70;;;;;;5086988;28;20094;-80
2022/09/26 03:06:26;;;;;;;3.30;1.95;;;17.00;96.70;;;;;;5063795;28;20055;-80
2022/09/26 03:08:55;;;;;;;3.13;1.80;;;17.00;96.70;;;;;;5086824;28;20083;-80
2022/09/26 03:11:26;;;;;;;2.80;2.10;;;17.00;96.70;;;;;;5065251;28;20056;-82
2022/09/26 03:13:55;;;;;;;4.43;1.95;;;17.00;96.70;;;;;;5081252;28;20063;-82
2022/09/26 03:16:29;;;;;;;3.28;2.17;;;17.00;96.70;;;;;;5079368;28;20047;-81
2022/09/26 03:19:02;;;;;;;4.40;2.45;;;17.00;96.70;;;;;;5079917;28;20040;-82
2022/09/26 03:21:33;;;;;;;3.47;2.17;;;17.00;96.70;;;;;;5092787;28;20058;-81
2022/09/26 03:24:05;;;;;;;2.83;1.95;;;16.90;96.70;;;;;;5100672;28;20078;-81
2022/09/26 03:26:34;;;;;;;2.03;1.85;;;16.90;96.70;;;;;;5068599;28;20063;-82
2022/09/26 03:29:02;;;;;;;3.20;1.77;;;17.00;96.70;;;;;;5077694;28;20574;-81
2022/09/26 03:31:34;;;;;;;2.17;1.52;;;16.90;96.70;;;;;;5083582;28;20044;-82
2022/09/26 03:34:06;;;;;;;1.98;1.70;;;16.90;96.70;;;;;;5082955;28;20135;-81
2022/09/26 03:36:35;;;;;;;1.60;1.20;;;16.80;96.70;;;;;;5086210;28;20048;-82
2022/09/26 03:39:03;;;;;;;2.40;1.30;;;16.80;96.70;;;;;;5065247;28;21283;-82
2022/09/26 03:42:01;;;;;;;1.40;0.90;;;16.80;96.70;;;;;;5038599;28;20068;-82
2022/09/26 03:44:30;;;;;;;1.70;1.10;;;16.90;96.70;;;;;;5045109;28;20481;-82
2022/09/26 03:47:14;;;;;;;1.98;1.05;;;16.90;96.70;;;;;;5058676;28;20048;-81
2022/09/26 03:49:49;;;;;;;3.15;1.30;;;16.90;96.70;;;;;;5047420;28;20052;-83
2022/09/26 03:52:19;;;;;;;3.90;1.20;;;16.90;96.70;;;;;;5041947;28;20136;-82
2022/09/26 03:54:49;;;;;;;1.40;0.85;;;16.80;96.70;;;;;;5034966;28;20448;-82
2022/09/26 03:57:17;;;;;;;2.22;1.05;;;16.80;96.70;;;;;;5061430;28;20048;-82
2022/09/26 03:59:57;;;;;;;2.58;1.42;;;16.80;96.70;;;;;;5037559;28;20518;-82
2022/09/26 04:02:31;;;;;;;2.75;1.10;;;16.80;96.70;;;;;;5040417;28;20132;-82
2022/09/26 04:05:23;;;;;;;2.10;1.52;;;16.80;96.70;;;;;;5044199;28;20171;-82
2022/09/26 04:07:52;;;;;;;3.40;1.40;;;16.80;96.70;;;;;;5021858;28;20049;-80
2022/09/26 04:10:23;;;;;;;2.13;1.65;;;16.80;96.70;;;;;;5038895;28;20052;-81
2022/09/26 04:12:51;;;;;;;5.43;1.40;;;16.80;96.70;;;;;;5038625;28;20391;-81
2022/09/26 04:15:19;;;;;;;4.13;1.58;;;16.90;96.70;;;;;;5042181;28;21753;-81
2022/09/26 04:17:50;;;;;;;2.28;1.50;;;16.90;96.70;;;;;;5034077;28;20818;-83
2022/09/26 04:20:19;;;;;;;1.80;1.45;;;16.90;96.70;;;;;;5064240;28;20055;-81
2022/09/26 04:22:47;;;;;;;2.92;1.52;;;16.80;96.70;;;;;;5082835;28;20135;-81
2022/09/26 04:25:18;;;;;;;2.50;1.20;;;16.80;96.70;;;;;;5081899;28;20055;-81
2022/09/26 04:27:46;;;;;;;3.53;1.40;;;16.90;96.70;;;;;;5062622;28;20047;-79
2022/09/26 04:30:15;;;;;;;2.72;1.73;;;16.90;96.70;;;;;;5078956;28;20072;-78
2022/09/26 04:32:48;;;;;;;3.90;1.67;;;16.90;96.70;;;;;;5075827;28;20056;-77
2022/09/26 04:35:31;;;;;;;2.03;1.83;;;16.90;96.70;;;;;;5082233;28;20774;-77
2022/09/26 04:37:59;;;;;;;2.47;1.38;;;16.80;96.70;;;;;;5081785;28;20104;-77
2022/09/26 04:40:30;;;;;;;4.30;1.50;;;16.80;96.70;;;;;;5065594;28;20048;-79
2022/09/26 04:43:07;;;;;;;3.53;1.60;;;16.80;96.70;;;;;;5076775;28;20109;-78
2022/09/26 04:45:38;;;;;;;2.15;1.65;;;16.80;96.70;;;;;;5082822;28;20875;-77
2022/09/26 04:48:09;;;;;;;3.88;1.73;;;16.80;96.70;;;;;;5079044;28;20140;-78
2022/09/26 04:50:55;;;;;;;2.20;1.63;;;16.80;96.70;;;;;;5069251;28;20051;-79
2022/09/26 04:53:24;;;;;;;5.65;2.05;;;16.80;96.70;;;;;;5083437;28;20566;-78
2022/09/26 04:56:22;;;;;;;4.95;2.00;;;16.60;96.70;;;;;;5077849;28;20059;-78
2022/09/26 04:58:50;;;;;;;4.18;1.90;;;16.60;96.70;;;;;;5065611;28;20044;-78
2022/09/26 05:01:20;;;;;;;4.80;1.85;;;16.70;96.70;;;;;;5081998;28;20052;-78
2022/09/26 05:03:59;;;;;;;2.00;1.58;;;16.70;96.70;;;;;;5082525;28;20036;-79
2022/09/26 05:06:28;;;;;;;3.30;1.98;;;16.60;96.70;;;;;;5065577;28;20113;-78
2022/09/26 05:08:59;;;;;;;3.20;1.95;;;16.60;96.70;;;;;;5065118;28;20052;-78
2022/09/26 05:11:58;;;;;;;;;;;16.60;96.70;;;;;;5076432;28;20546;-77
2022/09/26 05:14:26;;;;;;;4.55;3.15;;;16.70;96.70;;;;;;5087209;28;19957;-78
2022/09/26 05:16:55;;;;;;;6.20;3.60;;;16.70;96.70;;;;;;5086279;28;20048;-78
2022/09/26 05:19:23;;;;;;;6.40;3.58;;;16.70;96.70;;;;;;5086563;28;20436;-79
2022/09/26 05:22:14;;;;;;;5.85;3.55;;;16.70;96.70;;;;;;5087563;28;20056;-78
2022/09/26 05:27:31;;;;;;;3.63;3.20;;;16.60;96.70;;;;;;5087305;28;20044;-79
2022/09/26 05:29:59;;;;;;;4.28;3.38;;;16.60;96.70;;;;;;5086183;28;20743;-79
2022/09/26 05:32:28;;;;;;;6.18;3.90;;;16.60;96.70;;;;;;5086241;28;20052;-78
2022/09/26 05:34:57;;;;;;;4.95;3.90;;;16.70;96.70;;;;;;5086176;28;20032;-78
2022/09/26 05:37:28;;;;;;;7.07;4.07;;;16.70;96.70;;;;;;5069724;28;20044;-77
2022/09/26 05:42:49;;;;;;;5.15;3.10;;;16.70;96.70;;;;;;5080416;28;20055;-79
2022/09/26 05:45:18;;;;;;;4.60;3.20;;;16.70;96.70;;;;;;5111793;27;20048;-78
2022/09/26 05:47:47;;;;;;;8.13;2.90;;;16.70;96.70;;;;;;5069982;28;20126;-78
2022/09/26 05:50:16;;;;;;;8.27;3.10;;;16.70;96.70;;;;;;5069352;28;20052;-78
2022/09/26 05:52:45;;;;;;;7.95;2.72;;;16.70;96.70;;;;;;5084578;28;20040;-80
2022/09/26 05:55:20;;;;;;;3.87;2.33;;;16.70;96.70;;;;;;5086936;28;20044;-80
2022/09/26 05:58:02;;;;;;;5.25;2.67;;;16.70;96.70;;;;;;5088634;28;20040;-79
2022/09/26 06:00:50;;;;;;;2.38;1.83;;;16.80;96.70;;;;;;5084576;28;20052;-81
2022/09/26 06:03:19;;;;;;;3.25;2.10;;;16.80;96.70;;;;;;5087172;28;20055;-82
2022/09/26 06:06:09;;;;;;;3.95;1.65;;;16.80;96.70;;;;;;5085918;28;20036;-79
2022/09/26 06:08:38;;;;;;;2.03;1.67;;;16.90;96.70;;;;;;5081951;28;20048;-80
2022/09/26 06:11:32;;;;;;;3.53;1.45;;;16.90;96.70;;;;;;5075459;28;20044;-79
2022/09/26 06:14:01;;;;;;;4.35;2.30;;;16.90;96.70;;;;;;5084423;28;20284;-84
2022/09/26 06:16:31;;;;;;;4.25;2.83;;;17.00;96.70;;;;;;5089488;28;20040;-85
2022/09/26 06:19:01;;;;;;;3.78;3.38;;;17.00;96.70;;;;;;5084262;28;20552;-82
2022/09/26 06:21:29;;;;;;;6.13;3.17;;;17.00;96.70;;;;;;5089823;28;20409;-82
2022/09/26 06:24:08;;;;;;;4.22;2.88;;;17.00;96.70;;;;;;5089547;28;20048;-82
2022/09/26 06:26:38;;;;;;;5.95;3.55;;;17.10;96.70;;;;;;5086376;28;20539;-81
2022/09/26 06:29:09;;;;;;;4.35;2.95;;;17.10;96.70;;;;;;5089318;28;20175;-82
2022/09/26 06:31:41;;;;;;;7.03;3.40;;;17.20;96.70;;;;;;5089111;28;20040;-85
2022/09/26 06:34:11;;;;;;;10.02;4.03;;;17.30;96.70;;;;;;5090579;28;20131;-85
2022/09/26 06:37:11;;;;;;;10.00;4.20;;;17.30;96.70;;;;;;5074946;28;20048;-85
2022/09/26 06:39:40;;;;;;;10.35;4.90;;;17.30;96.70;;;;;;5090450;28;20032;-85
2022/09/26 06:42:08;;;;;;;10.65;4.70;;;17.30;96.70;;;;;;5088497;28;20090;-87
2022/09/26 06:44:56;;;;;;;10.77;5.97;;;17.40;96.70;;;;;;5087333;28;20574;-83
2022/09/26 06:47:24;;;;;;;11.85;6.18;;;17.40;96.70;;;;;;5089037;28;20093;-87
2022/09/26 06:50:21;;;;;;;8.07;4.57;;;17.50;96.70;;;;;;5089433;28;20047;-88
2022/09/26 06:52:53;;;;;;;10.00;4.57;;;17.50;96.70;;;;;;5089218;28;20088;-88
2022/09/26 06:55:23;;;;;;;7.07;3.85;;;17.50;96.70;;;;;;5089587;28;20040;-88
2022/09/26 06:57:52;;;;;;;7.72;3.90;;;17.50;96.70;;;;;;5080607;28;20147;-88
2022/09/26 07:00:28;;;;;;;6.82;3.88;;;17.50;96.70;;;;;;5036362;28;20044;-88
2022/09/26 07:03:07;;;;;;;7.85;3.60;;;17.60;96.70;;;;;;5087621;28;20036;-87
2022/09/26 07:05:56;;;;;;;8.30;3.70;;;17.60;96.70;;;;;;5089557;28;20135;-88
2022/09/26 07:08:26;;;;;;;7.93;3.78;;;17.70;96.70;;;;;;5088875;28;20146;-87
2022/09/26 07:11:18;;;;;;;5.35;3.63;;;17.70;96.70;;;;;;5083546;28;20059;-89
2022/09/26 07:14:06;;;;;;;5.68;3.20;;;17.80;96.70;;;;;;5088672;28;20059;-89
2022/09/26 07:16:37;;;;;;;4.82;3.15;;;17.80;96.70;;;;;;5088740;28;20044;-89
2022/09/26 07:19:24;;;;;;;6.45;2.83;;;17.90;96.70;;;;;;5088743;28;20048;-86
2022/09/26 07:22:02;;;;;;;5.07;3.50;;;17.90;96.70;;;;;;5088328;28;20391;-85
2022/09/26 07:24:34;;;;;;;4.47;3.00;;;18.00;96.70;;;;;;5086864;28;20098;-85
2022/09/26 07:27:03;;;;;;;4.85;3.70;;;18.10;96.70;;;;;;5088504;28;20056;-83
2022/09/26 07:29:31;;;;;;;6.57;3.40;;;18.10;96.70;;;;;;5065714;28;20572;-84
2022/09/26 07:32:02;;;;;;;4.95;2.97;;;18.20;96.70;;;;;;5086329;28;20497;-83
2022/09/26 07:35:02;;;;;;;5.40;3.70;;;18.20;96.70;;;;;;5069740;28;20044;-84
2022/09/26 07:37:31;;;;;;;3.70;3.30;;;18.30;96.70;;;;;;5085069;28;20067;-83
2022/09/26 07:39:59;;;;;;;4.70;3.90;;;18.30;96.70;;;;;;5084805;28;20040;-84
2022/09/26 07:42:31;;;;;;;9.15;5.65;;;18.30;96.70;;;;;;5088138;28;20052;-84
2022/09/26 07:44:59;;;;;;;19.13;12.15;;;18.30;96.70;;;;;;5062623;28;20067;-84
2022/09/26 07:50:57;;;;;;;13.13;9.65;;;18.30;96.70;;;;;;5066763;28;20055;-84
2022/09/26 07:53:41;;;;;;;10.63;7.85;;;18.40;96.70;;;;;;5087821;28;20044;-85
2022/09/26 07:56:32;;;;;;;11.25;7.63;;;18.40;96.70;;;;;;5088070;28;20058;-84
2022/09/26 07:59:17;;;;;;;11.45;7.10;;;18.60;96.70;;;;;;5072884;28;20111;-82
2022/09/26 08:02:22;;;;;;;8.63;5.55;;;18.70;96.70;;;;;;5092511;28;20071;-85
2022/09/26 08:04:56;;;;;;;6.85;4.45;;;18.70;96.70;;;;;;5070239;28;20044;-83
2022/09/26 08:07:31;;;;;;;5.43;3.95;;;18.70;96.70;;;;;;5086643;28;20044;-84
2022/09/26 08:10:18;;;;;;;6.38;3.75;;;18.70;96.70;;;;;;5079346;28;20052;-83
2022/09/26 08:13:05;;;;;;;5.05;3.45;;;18.90;96.70;;;;;;5081323;28;20086;-84
2022/09/26 08:15:54;;;;;;;4.88;3.28;;;18.90;96.70;;;;;;5082813;28;20513;-82
2022/09/26 08:18:28;;;;;;;6.35;3.15;;;18.90;96.70;;;;;;5087573;28;20039;-83
2022/09/26 08:21:01;;;;;;;4.55;3.80;;;19.00;96.70;;;;;;5087433;28;20063;-83
2022/09/26 08:23:30;;;;;;;6.55;3.60;;;19.00;96.70;;;;;;5078827;28;20040;-86
2022/09/26 08:26:20;;;;;;;4.55;3.80;;;19.00;96.70;;;;;;5089298;28;20075;-84
2022/09/26 08:28:50;;;;;;;4.45;3.80;;;19.00;96.70;;;;;;5070591;28;20052;-84
2022/09/26 08:31:19;;;;;;;4.20;3.80;;;19.00;96.70;;;;;;5087159;28;20048;-83
2022/09/26 08:33:48;;;;;;;5.45;4.22;;;19.10;96.70;;;;;;5070407;28;20044;-82
2022/09/26 08:36:17;;;;;;;4.55;4.00;;;19.10;96.70;;;;;;5068312;28;20096;-82
2022/09/26 08:39:15;;;;;;;4.50;3.90;;;19.20;96.70;;;;;;5081566;28;20056;-82
2022/09/26 08:42:12;;;;;;;4.80;4.22;;;19.30;96.70;;;;;;5088192;28;20131;-84
2022/09/26 08:49:07;;;;;;;6.15;4.20;;;19.30;96.70;;;;;;5050078;28;20078;-84
2022/09/26 08:51:41;;;;;;;5.57;4.35;;;19.30;96.70;;;;;;5027683;28;20060;-84
2022/09/26 08:54:13;;;;;;;4.82;4.30;;;19.40;96.70;;;;;;5064784;28;20044;-84
2022/09/26 08:56:47;;;;;;;4.15;3.65;;;19.40;96.70;;;;;;5086804;28;21126;-83
2022/09/26 08:59:24;;;;;;;5.43;4.05;;;19.50;96.70;;;;;;5083442;28;20067;-82
2022/09/26 09:01:55;;;;;;;7.30;4.88;;;19.50;96.70;;;;;;5088258;28;20126;-82
2022/09/26 09:04:39;;;;;;;4.77;3.90;;;19.50;96.70;;;;;;5073690;28;20044;-83
2022/09/26 09:07:15;;;;;;;4.45;4.05;;;19.50;96.70;;;;;;5066637;28;20052;-82
2022/09/26 09:09:43;;;;;;;5.20;4.32;;;19.60;96.70;;;;;;5069954;28;20505;-84
2022/09/26 09:12:21;;;;;;;4.57;4.13;;;19.70;96.70;;;;;;5087118;28;20040;-84
2022/09/26 09:15:30;;;;;;;4.25;3.30;;;19.70;96.70;;;;;;5083231;28;20048;-86
2022/09/26 09:18:29;;;;;;;4.22;3.83;;;19.80;96.70;;;;;;5086603;28;20144;-84
2022/09/26 09:21:30;;;;;;;5.00;3.63;;;19.90;96.70;;;;;;5070340;28;20547;-84
2022/09/26 09:24:18;;;;;;;5.38;4.20;;;20.00;96.70;;;;;;5086905;28;20572;-84
2022/09/26 09:27:02;;;;;;;4.97;4.07;;;20.00;96.70;;;;;;5086579;28;20052;-85
2022/09/26 09:30:01;;;;;;;5.30;4.30;;;20.00;96.70;;;;;;5082648;28;20044;-85
2022/09/26 09:32:54;;;;;;;5.20;4.05;;;20.10;96.70;;;;;;5087761;28;20044;-82
2022/09/26 09:36:05;;;;;;;4.70;4.30;;;20.20;96.70;;;;;;5044717;28;20075;-83
2022/09/26 09:38:44;;;;;;;4.57;4.18;;;20.20;96.70;;;;;;5082765;28;20076;-84
2022/09/26 09:41:24;;;;;;;4.40;4.00;;;20.30;96.70;;;;;;5085670;28;20068;-81
2022/09/26 09:43:54;;;;;;;4.93;3.80;;;20.40;96.70;;;;;;5077484;28;20137;-80
2022/09/26 09:46:27;;;;;;;4.55;4.15;;;20.40;96.70;;;;;;5063306;28;20048;-80
2022/09/26 09:48:59;;;;;;;4.95;4.00;;;20.40;96.70;;;;;;5079338;28;20043;-82
2022/09/26 09:51:37;;;;;;;4.75;4.25;;;20.50;96.70;;;;;;5065904;28;20094;-80
2022/09/26 09:54:26;;;;;;;4.50;4.05;;;20.60;96.70;;;;;;5079599;28;20697;-81
2022/09/26 09:57:19;;;;;;;6.45;4.20;;;20.70;96.70;;;;;;5082003;28;20044;-80
2022/09/26 10:00:01;;;;;;;5.15;3.97;;;20.80;96.70;;;;;;5084239;28;20072;-83
2022/09/26 10:02:51;;;;;;;3.67;3.35;;;20.90;96.70;;;;;;5091517;28;20039;-87
2022/09/26 10:05:34;;;;;;;4.28;3.88;;;21.10;96.70;;;;;;5089209;28;20225;-86
2022/09/26 10:08:08;;;;;;;6.35;3.40;;;21.10;96.70;;;;;;5075070;28;20131;-85
2022/09/26 10:11:08;;;;;;;4.18;3.67;;;21.10;96.70;;;;;;5090732;28;20105;-85
2022/09/26 10:14:02;;;;;;;3.63;3.33;;;21.00;96.70;;;;;;5090140;28;20141;-85
2022/09/26 10:17:19;;;;;;;3.80;3.50;;;21.00;96.70;;;;;;5070985;28;20418;-85
2022/09/26 10:20:00;;;;;;;4.68;3.75;;;21.00;96.70;;;;;;5081672;28;20465;-86
2022/09/26 10:22:36;;;;;;;4.88;3.63;;;21.10;96.70;;;;;;5097648;27;20093;-85
2022/09/26 10:25:14;;;;;;;4.05;3.25;;;21.00;96.70;;;;;;5085901;28;20049;-85
2022/09/26 10:27:48;;;;;;;4.03;2.85;;;21.10;96.70;;;;;;5071334;28;20048;-85
2022/09/26 10:30:28;;;;;;;3.45;2.80;;;21.20;96.70;;;;;;5079845;28;20051;-85
2022/09/26 10:33:24;;;;;;;4.20;3.10;;;21.20;96.70;;;;;;5083458;28;20051;-85
2022/09/26 10:36:09;;;;;;;3.33;3.03;;;21.40;96.70;;;;;;5089476;28;20044;-85
2022/09/26 10:40:44;;;;;;;4.07;2.90;;;21.60;96.70;;;;;;5089327;28;20536;-86
2022/09/26 10:41:40;;;;;;;2.92;2.38;;;21.70;96.70;;;;;;5078984;28;20056;-85
2022/09/26 10:44:25;;;;;;;4.55;3.42;;;22.00;96.70;;;;;;5087942;28;20488;-86
2022/09/26 10:47:22;;;;;;;3.97;3.20;;;22.10;96.70;;;;;;5086744;28;20048;-85
2022/09/26 10:50:29;;;;;;;2.75;2.55;;;22.20;96.70;;;;;;5048519;28;20120;-84
2022/09/26 10:53:36;;;;;;;3.70;3.33;;;22.30;96.70;;;;;;5035333;28;20064;-85
2022/09/26 10:56:10;;;;;;;4.32;2.83;;;22.20;96.70;;;;;;5073503;28;20101;-84
2022/09/26 10:58:43;;;;;;;3.63;2.55;;;22.20;96.70;;;;;;5086749;28;20098;-85
2022/09/26 11:01:19;;;;;;;3.33;2.72;;;22.10;96.70;;;;;;5080830;28;20478;-85
2022/09/26 11:03:50;;;;;;;5.35;2.50;;;22.20;96.70;;;;;;5088880;28;20044;-84
2022/09/26 11:06:28;;;;;;;5.45;2.22;;;22.40;96.70;;;;;;5087256;28;20048;-85
2022/09/26 11:09:29;;;;;;;3.35;2.53;;;22.40;96.70;;;;;;5047367;28;20179;-85
2022/09/26 11:12:24;;;;;;;3.58;3.00;;;22.60;96.70;;;;;;5044777;28;20513;-85
2022/09/26 11:14:58;;;;;;;7.70;2.83;;;22.60;96.70;;;;;;5045136;28;20533;-84
2022/09/26 11:17:44;;;;;;;3.90;2.60;;;22.70;96.70;;;;;;5026867;28;20050;-84
2022/09/26 11:20:19;;;;;;;3.63;2.53;;;22.80;96.70;;;;;;5046671;28;20047;-85
2022/09/26 11:22:55;;;;;;;3.17;2.53;;;22.90;96.70;;;;;;5030525;28;20407;-85
2022/09/26 11:25:31;;;;;;;2.90;2.60;;;23.00;96.70;;;;;;5046236;28;20057;-84
2022/09/26 11:28:07;;;;;;;3.95;2.42;;;23.10;96.70;;;;;;5045795;28;20588;-85
2022/09/26 11:31:04;;;;;;;3.33;2.17;;;23.30;96.70;;;;;;5023889;28;20054;-85
2022/09/26 11:33:36;;;;;;;3.03;2.08;;;23.60;96.70;;;;;;5053307;28;20710;-85
2022/09/26 11:36:45;;;;;;;4.60;2.20;;;23.70;96.70;;;;;;5050909;28;20055;-84
2022/09/26 11:39:31;;;;;;;2.53;1.80;;;23.70;96.70;;;;;;5047405;28;20049;-84
2022/09/26 11:42:12;;;;;;;2.22;1.98;;;23.90;96.70;;;;;;5050886;28;20164;-85
2022/09/26 11:44:52;;;;;;;3.40;2.00;;;23.80;96.70;;;;;;5046255;28;20076;-84
2022/09/26 11:47:53;;;;;;;2.53;1.98;;;23.70;96.70;;;;;;5094301;28;20197;-85
2022/09/26 11:50:45;;;;;;;3.38;2.20;;;23.50;96.70;;;;;;5069184;28;20160;-84
2022/09/26 11:53:35;;;;;;;3.33;3.03;;;23.40;96.70;;;;;;5087287;28;20048;-84
2022/09/26 11:56:28;;;;;;;6.57;2.25;;;23.40;96.70;;;;;;5087553;28;20048;-84
2022/09/26 11:59:05;;;;;;;3.95;2.10;;;23.30;96.70;;;;;;5069797;28;20078;-82
2022/09/26 12:01:42;;;;;;;2.47;1.90;;;23.20;96.70;;;;;;5093233;28;20059;-82
2022/09/26 12:04:26;;;;;;;2.78;2.13;;;23.10;96.70;;;;;;5064382;28;20052;-81
2022/09/26 12:07:00;;;;;;;3.30;1.40;;;23.20;96.70;;;;;;5083161;28;20402;-81
2022/09/26 12:09:49;;;;;;;2.95;1.10;;;23.30;96.70;;;;;;5086231;28;20107;-81
2022/09/26 12:12:25;;;;;;;3.58;1.80;;;23.20;96.70;;;;;;5083979;28;20048;-81
2022/09/26 12:15:10;;;;;;;3.08;1.50;;;23.30;96.70;;;;;;5077411;28;20097;-80
2022/09/26 12:17:49;;;;;;;2.85;1.27;;;23.60;96.70;;;;;;5083145;28;20056;-80
2022/09/26 12:20:27;;;;;;;3.15;1.00;;;23.50;96.70;;;;;;5080431;28;20083;-79
2022/09/26 12:23:05;;;;;;;3.05;1.13;;;23.70;96.70;;;;;;5084449;28;20055;-79
2022/09/26 12:25:56;;;;;;;4.15;1.20;;;23.90;96.70;;;;;;5085076;28;20044;-78
2022/09/26 12:28:48;;;;;;;2.03;1.17;;;23.70;96.70;;;;;;5081798;28;20627;-79
2022/09/26 12:31:24;;;;;;;3.63;1.05;;;23.50;96.70;;;;;;5070698;28;20409;-80
2022/09/26 12:34:17;;;;;;;3.25;1.33;;;23.40;96.70;;;;;;5084650;28;20456;-79
2022/09/26 12:37:00;;;;;;;2.50;1.15;;;23.40;96.70;;;;;;5099707;28;20060;-78
2022/09/26 12:39:51;;;;;;;1.75;1.05;;;23.30;96.70;;;;;;5081066;28;20101;-78
2022/09/26 12:42:32;;;;;;;1.63;1.13;;;23.20;96.70;;;;;;5062199;28;20466;-78
2022/09/26 12:45:26;;;;;;;4.10;1.00;;;23.60;96.70;;;;;;5086124;28;20474;-78
2022/09/26 12:48:08;;;;;;;4.05;1.10;;;23.60;96.70;;;;;;5080363;28;20043;-78
2022/09/26 12:50:47;;;;;;;1.65;1.13;;;23.80;96.70;;;;;;5083626;28;20393;-78
2022/09/26 12:53:38;;;;;;;2.75;0.75;;;24.20;96.70;;;;;;5075526;28;20083;-78
2022/09/26 12:56:09;;;;;;;2.08;0.73;;;24.40;96.70;;;;;;5074846;28;20036;-77
2022/09/26 12:59:05;;;;;;;3.03;0.68;;;24.50;96.70;;;;;;5082507;28;20097;-79
2022/09/26 13:01:48;;;;;;;1.40;0.70;;;24.80;96.70;;;;;;5082045;28;20048;-78
2022/09/26 13:04:43;;;;;;;1.52;0.70;;;24.50;96.70;;;;;;5082881;28;20102;-79
2022/09/26 13:07:33;;;;;;;1.30;0.52;;;24.50;96.70;;;;;;5065296;28;20139;-78
2022/09/26 13:10:25;;;;;;;3.97;0.40;;;24.70;96.70;;;;;;5080888;28;20067;-77
2022/09/26 13:13:24;;;;;;;0.60;0.30;;;24.90;96.70;;;;;;5085084;28;20064;-78
2022/09/26 13:16:04;;;;;;;0.52;0.30;;;25.10;96.70;;;;;;5083438;28;20040;-81
2022/09/26 13:18:36;;;;;;;0.77;0.30;;;25.20;96.70;;;;;;5079096;28;20047;-80
2022/09/26 13:21:10;;;;;;;1.27;0.40;;;25.30;96.70;;;;;;5064663;28;20044;-80
2022/09/26 13:23:44;;;;;;;2.28;0.40;;;25.30;96.70;;;;;;5081352;28;20054;-80
2022/09/26 13:26:18;;;;;;;1.77;0.47;;;25.20;96.70;;;;;;5086187;28;20044;-79
2022/09/26 13:28:53;;;;;;;1.08;0.25;;;25.20;96.70;;;;;;5078766;28;20048;-80
2022/09/26 13:31:48;;;;;;;1.77;0.40;;;25.20;96.70;;;;;;5087092;28;20731;-80
2022/09/26 13:34:21;;;;;;;1.50;0.40;;;25.20;96.70;;;;;;5085353;28;20066;-80
2022/09/26 13:36:50;;;;;;;4.53;0.60;;;25.30;96.70;;;;;;5087378;28;20119;-80
2022/09/26 13:39:31;;;;;;;2.17;0.70;;;25.20;96.70;;;;;;5081435;28;20040;-80
2022/09/26 13:42:05;;;;;;;3.90;0.50;;;25.30;96.70;;;;;;5102115;28;20058;-82
2022/09/26 13:44:48;;;;;;;2.40;1.00;;;25.40;96.70;;;;;;5085583;28;20048;-79
2022/09/26 13:47:31;;;;;;;3.65;0.88;;;25.40;96.70;;;;;;5088367;28;20567;-80
2022/09/26 13:50:07;;;;;;;2.53;0.70;;;25.20;96.70;;;;;;5085736;28;20071;-78
2022/09/26 13:52:46;;;;;;;2.60;0.40;;;25.20;96.70;;;;;;5083989;28;20072;-79
2022/09/26 13:55:18;;;;;;;3.25;0.70;;;25.20;96.70;;;;;;5087317;28;20040;-79
2022/09/26 13:57:48;;;;;;;4.82;0.98;;;25.20;96.70;;;;;;5078013;28;20044;-78
2022/09/26 14:00:40;;;;;;;1.98;0.88;;;25.40;96.70;;;;;;5080821;28;20501;-78